createdAt,value
2018-06-14T00:00:09.886Z,61.60
2018-06-14T00:02:38.089Z,62.11
2018-06-14T00:05:06.359Z,63.05
2018-06-14T00:07:34.514Z,62.15
2018-06-14T00:10:03.907Z,62.55
2018-06-14T00:12:32.040Z,63.16
2018-06-14T00:15:00.720Z,63.04
2018-06-14T00:17:28.951Z,64.30
2018-06-14T00:19:57.190Z,63.40
2018-06-14T00:22:25.496Z,64.44
2018-06-14T00:24:53.653Z,64.02
2018-06-14T00:27:21.844Z,64.60
2018-06-14T00:29:49.969Z,63.96
2018-06-14T00:32:18.134Z,64.55
2018-06-14T00:34:46.490Z,64.76
2018-06-14T00:37:15.754Z,64.29
2018-06-14T00:39:44.770Z,64.30
2018-06-14T00:42:12.944Z,64.16
2018-06-14T00:44:41.407Z,64.22
2018-06-14T00:47:09.565Z,65.34
2018-06-14T00:49:37.679Z,65.54
2018-06-14T00:52:06.373Z,65.34
2018-06-14T00:54:34.466Z,65.60
2018-06-14T00:57:13.878Z,65.54
2018-06-14T00:59:42.064Z,64.23
2018-06-14T01:02:10.333Z,63.92
2018-06-14T01:04:38.489Z,65.23
2018-06-14T01:07:06.904Z,65.59
2018-06-14T01:09:35.065Z,65.48
2018-06-14T01:12:03.178Z,65.14
2018-06-14T01:14:31.563Z,65.00
2018-06-14T01:16:59.795Z,64.61
2018-06-14T01:19:27.978Z,65.16
2018-06-14T01:21:56.035Z,64.55
2018-06-14T01:24:24.119Z,64.64
2018-06-14T01:26:54.114Z,65.75
2018-06-14T01:29:22.343Z,65.71
2018-06-14T01:31:50.660Z,65.86
2018-06-14T01:34:18.924Z,65.01
2018-06-14T01:36:47.163Z,65.30
2018-06-14T01:39:15.797Z,65.19
2018-06-14T01:41:43.983Z,64.98
2018-06-14T01:44:13.059Z,65.60
2018-06-14T01:46:41.263Z,64.40
2018-06-14T01:49:09.379Z,65.34
2018-06-14T01:51:37.700Z,64.79
2018-06-14T01:54:05.973Z,65.73
2018-06-14T01:56:34.320Z,64.93
2018-06-14T01:59:02.438Z,65.02
2018-06-14T02:01:30.706Z,66.65
2018-06-14T02:03:59.258Z,65.80
2018-06-14T02:06:27.564Z,65.80
2018-06-14T02:08:55.731Z,66.61
2018-06-14T02:11:23.859Z,66.47
2018-06-14T02:13:52.037Z,65.95
2018-06-14T02:16:20.315Z,67.26
2018-06-14T02:18:48.407Z,66.57
2018-06-14T02:21:16.672Z,68.12
2018-06-14T02:23:45.903Z,69.64
2018-06-14T02:26:14.043Z,69.51
2018-06-14T02:28:42.274Z,68.57
2018-06-14T02:31:10.553Z,68.14
2018-06-14T02:33:38.697Z,66.94
2018-06-14T02:36:06.796Z,68.12
2018-06-14T02:38:34.911Z,67.89
2018-06-14T02:41:03.286Z,68.05
2018-06-14T02:43:31.337Z,67.47
2018-06-14T02:45:59.482Z,68.00
2018-06-14T02:48:27.657Z,67.75
2018-06-14T02:50:55.815Z,68.16
2018-06-14T02:53:23.951Z,68.95
2018-06-14T02:55:52.072Z,68.84
2018-06-14T02:58:21.004Z,68.22
2018-06-14T03:00:49.118Z,68.54
2018-06-14T03:03:17.228Z,67.78
2018-06-14T03:05:46.087Z,66.97
2018-06-14T03:08:15.021Z,67.47
2018-06-14T03:10:43.859Z,66.73
2018-06-14T03:13:11.937Z,66.81
2018-06-14T03:15:40.161Z,66.60
2018-06-14T03:18:08.357Z,67.27
2018-06-14T03:20:36.603Z,67.47
2018-06-14T03:23:04.882Z,67.71
2018-06-14T03:25:33.154Z,67.02
2018-06-14T03:28:01.527Z,66.91
2018-06-14T03:30:29.631Z,68.46
2018-06-14T03:32:57.762Z,67.43
2018-06-14T03:35:25.914Z,66.82
2018-06-14T03:37:54.087Z,69.17
2018-06-14T03:40:23.048Z,67.62
2018-06-14T03:42:51.183Z,67.43
2018-06-14T03:45:20.966Z,68.00
2018-06-14T03:47:50.411Z,66.86
2018-06-14T03:50:18.721Z,67.77
2018-06-14T03:52:46.859Z,68.81
2018-06-14T03:55:15.512Z,68.87
2018-06-14T03:57:44.088Z,68.11
2018-06-14T04:00:12.551Z,67.71
2018-06-14T04:02:40.881Z,67.92
2018-06-14T04:05:09.017Z,68.18
2018-06-14T04:07:37.232Z,67.68
2018-06-14T04:10:05.629Z,67.80
2018-06-14T04:12:33.835Z,68.03
2018-06-14T04:15:01.960Z,69.09
2018-06-14T04:17:30.114Z,69.18
2018-06-14T04:19:58.360Z,69.84
2018-06-14T04:22:26.745Z,68.35
2018-06-14T04:24:55.113Z,69.24
2018-06-14T04:27:23.326Z,68.08
2018-06-14T04:29:51.471Z,68.31
2018-06-14T04:32:19.628Z,68.43
2018-06-14T04:34:47.827Z,69.44
2018-06-14T04:37:16.597Z,68.18
2018-06-14T04:39:44.907Z,67.91
2018-06-14T04:42:13.227Z,67.37
2018-06-14T04:44:41.347Z,67.99
2018-06-14T04:47:09.653Z,67.65
2018-06-14T04:49:38.204Z,68.39
2018-06-14T04:52:06.739Z,68.32
2018-06-14T04:54:35.076Z,67.18
2018-06-14T04:57:03.854Z,66.76
2018-06-14T04:59:31.988Z,67.61
2018-06-14T05:02:00.081Z,66.56
2018-06-14T05:04:28.282Z,66.36
2018-06-14T05:06:56.437Z,66.78
2018-06-14T05:09:25.096Z,66.34
2018-06-14T05:11:53.270Z,67.42
2018-06-14T05:14:21.464Z,67.63
2018-06-14T05:16:49.694Z,68.49
2018-06-14T05:19:17.866Z,67.65
2018-06-14T05:21:46.757Z,67.76
2018-06-14T05:24:15.297Z,67.56
2018-06-14T05:26:43.454Z,67.25
2018-06-14T05:29:11.745Z,67.20
2018-06-14T05:31:40.067Z,66.14
2018-06-14T05:34:08.208Z,66.41
2018-06-14T05:36:36.287Z,66.19
2018-06-14T05:39:07.428Z,67.86
2018-06-14T05:41:35.705Z,66.28
2018-06-14T05:44:04.317Z,66.58
2018-06-14T05:46:33.837Z,66.78
2018-06-14T05:49:02.065Z,66.78
2018-06-14T05:51:30.455Z,66.49
2018-06-14T05:53:58.571Z,66.30
2018-06-14T05:56:27.015Z,66.06
2018-06-14T05:58:55.275Z,65.41
2018-06-14T06:01:24.006Z,64.33
2018-06-14T06:03:52.367Z,65.55
2018-06-14T06:06:20.501Z,65.08
2018-06-14T06:08:48.641Z,65.01
2018-06-14T06:11:16.971Z,66.09
2018-06-14T06:13:45.652Z,66.41
2018-06-14T06:16:13.784Z,66.04
2018-06-14T06:18:42.100Z,66.14
2018-06-14T06:21:10.525Z,64.96
2018-06-14T06:23:38.866Z,64.80
2018-06-14T06:26:07.024Z,64.30
2018-06-14T06:28:35.079Z,64.52
2018-06-14T06:31:03.229Z,64.63
2018-06-14T06:33:31.486Z,64.77
2018-06-14T06:35:59.436Z,65.25
2018-06-14T06:38:27.567Z,64.74
2018-06-14T06:40:55.784Z,65.54
2018-06-14T06:43:23.942Z,65.40
2018-06-14T06:45:52.055Z,64.14
2018-06-14T06:48:20.496Z,63.97
2018-06-14T06:50:48.630Z,64.32
2018-06-14T06:53:17.094Z,63.52
2018-06-14T06:55:45.461Z,64.26
2018-06-14T06:58:13.569Z,61.84
2018-06-14T07:00:41.695Z,62.41
2018-06-14T07:03:10.171Z,62.67
2018-06-14T07:05:38.344Z,60.64
2018-06-14T07:08:19.086Z,59.42
2018-06-14T07:11:15.388Z,60.40
2018-06-14T07:13:44.700Z,60.37
2018-06-14T07:16:12.896Z,60.60
2018-06-14T07:18:41.032Z,59.08
2018-06-14T07:21:09.280Z,59.99
2018-06-14T07:23:37.532Z,60.59
2018-06-14T07:26:05.719Z,58.39
2018-06-14T07:28:33.936Z,57.97
2018-06-14T07:31:02.047Z,60.32
2018-06-14T07:33:30.272Z,60.79
2018-06-14T07:35:58.980Z,60.11
2018-06-14T07:38:27.152Z,60.68
2018-06-14T07:40:55.403Z,58.69
2018-06-14T07:43:23.628Z,60.27
2018-06-14T07:45:51.751Z,60.03
2018-06-14T07:48:19.848Z,59.62
2018-06-14T07:50:48.016Z,57.58
2018-06-14T07:53:16.262Z,57.04
2018-06-14T07:55:44.639Z,57.83
2018-06-14T07:58:12.853Z,56.91
2018-06-14T08:00:41.110Z,56.83
2018-06-14T08:03:09.713Z,56.34
2018-06-14T08:05:37.897Z,56.65
2018-06-14T08:08:06.065Z,55.96
2018-06-14T08:10:34.188Z,54.19
2018-06-14T08:13:02.407Z,53.25
2018-06-14T08:15:30.566Z,53.22
2018-06-14T08:17:59.265Z,52.42
2018-06-14T08:20:27.546Z,53.92
2018-06-14T08:22:55.804Z,53.99
2018-06-14T08:25:23.929Z,54.01
2018-06-14T08:27:52.119Z,52.50
2018-06-14T08:30:20.280Z,52.02
2018-06-14T08:32:48.376Z,51.58
2018-06-14T08:35:18.601Z,51.17
2018-06-14T08:37:47.483Z,51.63
2018-06-14T08:40:15.628Z,51.62
2018-06-14T08:42:43.772Z,52.18
2018-06-14T08:45:11.864Z,52.22
2018-06-14T08:47:40.222Z,53.30
2018-06-14T08:50:08.384Z,53.71
2018-06-14T08:52:36.497Z,52.50
2018-06-14T08:55:04.813Z,52.28
2018-06-14T08:57:33.157Z,51.34
2018-06-14T09:00:01.460Z,49.54
2018-06-14T09:02:29.619Z,46.36
2018-06-14T09:04:57.753Z,47.17
2018-06-14T09:07:25.831Z,48.29
2018-06-14T09:09:53.944Z,48.00
2018-06-14T09:12:22.010Z,47.67
2018-06-14T09:14:50.599Z,48.52
2018-06-14T09:17:18.639Z,48.09
2018-06-14T09:19:47.804Z,48.00
2018-06-14T09:22:15.880Z,47.24
2018-06-14T09:24:45.480Z,46.91
2018-06-14T09:27:13.561Z,47.63
2018-06-14T09:29:42.544Z,46.20
2018-06-14T09:32:11.138Z,46.77
2018-06-14T09:34:39.420Z,46.36
2018-06-14T09:37:07.564Z,47.60
2018-06-14T09:39:35.860Z,46.99
2018-06-14T09:42:04.295Z,47.22
2018-06-14T09:44:33.471Z,46.20
2018-06-14T09:47:01.734Z,47.82
2018-06-14T09:49:29.880Z,45.66
2018-06-14T09:51:58.036Z,45.75
2018-06-14T09:54:26.185Z,44.15
2018-06-14T09:56:54.261Z,43.29
2018-06-14T09:59:22.370Z,43.29
2018-06-14T10:01:50.575Z,43.48
2018-06-14T10:04:18.677Z,42.68
2018-06-14T10:06:46.863Z,43.43
2018-06-14T10:09:15.306Z,41.37
2018-06-14T10:11:43.695Z,42.25
2018-06-14T10:14:11.810Z,41.94
2018-06-14T10:16:39.919Z,43.14
2018-06-14T10:19:08.025Z,43.45
2018-06-14T10:21:36.325Z,43.51
2018-06-14T10:24:04.640Z,41.85
2018-06-14T10:26:32.809Z,42.32
2018-06-14T10:29:00.961Z,43.74
2018-06-14T10:31:29.256Z,43.55
2018-06-14T10:33:57.425Z,42.05
2018-06-14T10:36:25.677Z,41.77
2018-06-14T10:38:53.792Z,43.69
2018-06-14T10:41:22.089Z,42.19
2018-06-14T10:43:50.322Z,42.10
2018-06-14T10:46:18.464Z,42.65
2018-06-14T10:48:47.090Z,42.19
2018-06-14T10:51:15.187Z,40.90
2018-06-14T10:53:43.507Z,41.76
2018-06-14T10:56:23.146Z,42.12
2018-06-14T10:58:56.798Z,42.37
2018-06-14T11:01:25.357Z,42.69
2018-06-14T11:03:53.484Z,42.15
2018-06-14T11:06:21.687Z,42.18
2018-06-14T11:08:49.827Z,41.85
2018-06-14T11:11:18.361Z,42.16
2018-06-14T11:13:47.353Z,41.87
2018-06-14T11:16:15.526Z,43.56
2018-06-14T11:18:43.730Z,42.82
2018-06-14T11:21:11.840Z,41.97
2018-06-14T11:23:40.283Z,42.32
2018-06-14T11:26:08.370Z,42.43
2018-06-14T11:28:38.410Z,40.54
2018-06-14T11:31:07.092Z,41.12
2018-06-14T11:33:35.256Z,42.16
2018-06-14T11:36:03.650Z,41.07
2018-06-14T11:38:31.831Z,41.83
2018-06-14T11:41:03.318Z,40.45
2018-06-14T11:43:31.461Z,41.94
2018-06-14T11:45:59.612Z,41.78
2018-06-14T11:48:28.158Z,42.20
2018-06-14T11:50:56.376Z,43.10
2018-06-14T11:53:24.802Z,43.96
2018-06-14T11:55:52.949Z,44.04
2018-06-14T11:58:21.230Z,42.99
2018-06-14T12:00:49.521Z,43.37
2018-06-14T12:03:18.340Z,42.54
2018-06-14T12:05:47.594Z,42.88
2018-06-14T12:08:15.902Z,43.12
2018-06-14T12:10:44.153Z,43.46
2018-06-14T12:13:12.262Z,43.20
2018-06-14T12:15:40.590Z,43.16
2018-06-14T12:18:08.762Z,42.70
2018-06-14T12:20:37.396Z,41.68
2018-06-14T12:23:06.010Z,39.59
2018-06-14T12:25:34.243Z,40.58
2018-06-14T12:28:02.456Z,41.34
2018-06-14T12:30:30.676Z,41.97
2018-06-14T12:32:58.858Z,41.57
2018-06-14T12:35:27.109Z,41.50
2018-06-14T12:37:55.587Z,43.05
2018-06-14T12:40:23.778Z,42.25
2018-06-14T12:42:52.031Z,42.16
2018-06-14T12:45:20.312Z,41.22
2018-06-14T12:47:49.410Z,41.41
2018-06-14T12:50:18.608Z,42.36
2018-06-14T12:52:47.197Z,42.47
2018-06-14T12:55:15.363Z,41.11
2018-06-14T12:57:43.534Z,41.90
2018-06-14T13:00:11.719Z,40.71
2018-06-14T13:02:45.576Z,39.03
2018-06-14T13:05:13.658Z,40.75
2018-06-14T13:07:41.852Z,40.14
2018-06-14T13:10:12.311Z,40.93
2018-06-14T13:12:40.570Z,41.82
2018-06-14T13:15:08.879Z,38.20
2018-06-14T13:17:37.081Z,37.60
2018-06-14T13:20:05.213Z,40.47
2018-06-14T13:22:33.418Z,39.66
2018-06-14T13:25:01.536Z,37.77
2018-06-14T13:27:29.912Z,36.28
2018-06-14T13:29:59.390Z,34.78
2018-06-14T13:32:28.108Z,33.83
2018-06-14T13:34:56.312Z,33.21
2018-06-14T13:37:24.556Z,33.57
2018-06-14T13:39:52.652Z,33.14
2018-06-14T13:42:20.847Z,30.31
2018-06-14T13:44:48.979Z,29.64
2018-06-14T13:47:18.622Z,33.16
2018-06-14T13:49:47.752Z,31.40
2018-06-14T13:52:17.333Z,31.36
2018-06-14T13:54:45.456Z,28.91
2018-06-14T13:57:14.619Z,27.39
2018-06-14T13:59:42.843Z,31.94
2018-06-14T14:02:11.105Z,34.39
2018-06-14T14:04:39.192Z,35.29
2018-06-14T14:07:07.283Z,34.88
2018-06-14T14:09:35.548Z,31.56
2018-06-14T14:12:03.806Z,31.84
2018-06-14T14:14:32.197Z,31.27
2018-06-14T14:17:01.280Z,29.50
2018-06-14T14:19:29.468Z,27.99
2018-06-14T14:21:57.724Z,29.72
2018-06-14T14:24:26.190Z,26.63
2018-06-14T14:26:54.661Z,26.98
2018-06-14T14:29:22.824Z,25.37
2018-06-14T14:31:51.299Z,26.05
2018-06-14T14:34:20.139Z,27.91
2018-06-14T14:36:49.011Z,27.53
2018-06-14T14:39:17.388Z,28.06
2018-06-14T14:41:45.678Z,29.98
2018-06-14T14:44:13.814Z,27.99
2018-06-14T14:46:41.968Z,31.01
2018-06-14T14:49:10.235Z,27.78
2018-06-14T14:51:38.339Z,29.74
2018-06-14T14:54:06.540Z,27.34
2018-06-14T14:56:35.158Z,27.20
2018-06-14T14:59:03.289Z,25.77
2018-06-14T15:01:31.530Z,28.70
2018-06-14T15:03:59.637Z,27.93
2018-06-14T15:06:28.391Z,27.80
2018-06-14T15:08:57.230Z,27.47
2018-06-14T15:11:25.451Z,29.75
2018-06-14T15:13:54.023Z,28.71
2018-06-14T15:16:22.145Z,28.95
2018-06-14T15:18:50.399Z,27.59
2018-06-14T15:21:19.115Z,26.17
2018-06-14T15:23:47.484Z,25.09
2018-06-14T15:26:16.261Z,24.93
2018-06-14T15:28:44.532Z,25.96
2018-06-14T15:31:12.820Z,26.40
2018-06-14T15:33:41.818Z,26.22
2018-06-14T15:36:09.848Z,25.95
2018-06-14T15:38:37.965Z,29.51
2018-06-14T15:41:06.304Z,31.65
2018-06-14T15:43:42.988Z,29.88
2018-06-14T15:46:22.827Z,32.05
2018-06-14T15:48:51.149Z,29.83
2018-06-14T15:51:19.163Z,28.69
2018-06-14T15:53:48.012Z,31.86
2018-06-14T15:56:32.981Z,31.20
2018-06-14T15:59:03.691Z,34.28
2018-06-14T16:01:33.870Z,34.41
2018-06-14T16:04:02.726Z,32.68
2018-06-14T16:06:32.297Z,32.34
2018-06-14T16:09:00.457Z,32.06
2018-06-14T16:11:29.168Z,33.24
2018-06-14T16:13:58.265Z,31.79
2018-06-14T16:16:27.163Z,32.72
2018-06-14T16:18:55.812Z,33.15
2018-06-14T16:21:23.875Z,36.65
2018-06-14T16:23:52.588Z,35.09
2018-06-14T16:26:20.720Z,34.97
2018-06-14T16:28:49.569Z,35.26
2018-06-14T16:31:19.211Z,35.04
2018-06-14T16:33:48.217Z,33.52
2018-06-14T16:36:16.425Z,34.69
2018-06-14T16:38:44.775Z,34.21
2018-06-14T16:41:12.923Z,37.19
2018-06-14T16:43:41.423Z,37.26
2018-06-14T16:46:09.583Z,36.86
2018-06-14T16:48:37.739Z,37.69
2018-06-14T16:51:06.100Z,35.51
2018-06-14T16:53:34.376Z,36.47
2018-06-14T16:56:02.572Z,37.78
2018-06-14T16:58:30.721Z,36.86
2018-06-14T17:00:58.995Z,37.32
2018-06-14T17:03:27.131Z,36.70
2018-06-14T17:05:55.255Z,36.26
2018-06-14T17:08:23.380Z,36.95
2018-06-14T17:10:51.801Z,38.01
2018-06-14T17:13:20.135Z,37.21
2018-06-14T17:15:48.519Z,38.35
2018-06-14T17:18:16.639Z,38.57
2018-06-14T17:20:44.934Z,38.41
2018-06-14T17:23:13.072Z,39.82
2018-06-14T17:25:42.421Z,39.33
2018-06-14T17:28:10.785Z,38.64
2018-06-14T17:30:39.035Z,39.16
2018-06-14T17:33:07.352Z,40.26
2018-06-14T17:35:35.564Z,39.93
2018-06-14T17:38:03.716Z,39.78
2018-06-14T17:40:32.038Z,40.88
2018-06-14T17:43:00.215Z,39.30
2018-06-14T17:45:28.386Z,40.50
2018-06-14T17:47:56.517Z,39.23
2018-06-14T17:50:24.628Z,39.54
2018-06-14T17:52:56.834Z,39.26
2018-06-14T17:55:25.994Z,38.97
2018-06-14T17:57:54.296Z,40.16
2018-06-14T18:00:22.763Z,41.16
2018-06-14T18:02:50.862Z,40.88
2018-06-14T18:05:19.706Z,40.97
2018-06-14T18:07:48.137Z,42.70
2018-06-14T18:10:18.394Z,42.45
2018-06-14T18:12:46.936Z,41.38
2018-06-14T18:15:15.557Z,42.30
2018-06-14T18:17:44.520Z,41.79
2018-06-14T18:20:12.641Z,41.76
2018-06-14T18:22:40.928Z,41.08
2018-06-14T18:25:09.293Z,42.04
2018-06-14T18:27:37.654Z,41.50
2018-06-14T18:30:05.924Z,41.80
2018-06-14T18:32:34.461Z,42.77
2018-06-14T18:35:02.552Z,42.58
2018-06-14T18:37:30.733Z,42.99
2018-06-14T18:39:58.832Z,42.40
2018-06-14T18:42:26.956Z,42.81
2018-06-14T18:44:55.094Z,42.26
2018-06-14T18:47:23.451Z,43.15
2018-06-14T18:49:51.746Z,42.77
2018-06-14T18:52:20.002Z,43.01
2018-06-14T18:54:48.554Z,42.99
2018-06-14T18:57:16.760Z,43.55
2018-06-14T18:59:48.440Z,44.31
2018-06-14T19:02:16.922Z,43.86
2018-06-14T19:04:45.045Z,43.44
2018-06-14T19:07:13.416Z,43.97
2018-06-14T19:09:41.637Z,44.48
2018-06-14T19:12:10.060Z,44.63
2018-06-14T19:14:38.369Z,45.20
2018-06-14T19:17:06.705Z,45.24
2018-06-14T19:19:34.847Z,45.08
2018-06-14T19:22:03.151Z,44.31
2018-06-14T19:24:31.668Z,45.53
2018-06-14T19:26:59.915Z,45.83
2018-06-14T19:29:31.650Z,46.68
2018-06-14T19:32:00.122Z,46.53
2018-06-14T19:34:31.038Z,46.35
2018-06-14T19:36:59.231Z,47.09
2018-06-14T19:39:27.406Z,46.90
2018-06-14T19:41:55.655Z,47.64
2018-06-14T19:44:23.945Z,47.15
2018-06-14T19:46:52.535Z,47.49
2018-06-14T19:49:24.806Z,48.33
2018-06-14T19:51:53.755Z,47.48
2018-06-14T19:54:22.076Z,48.04
2018-06-14T19:56:51.232Z,48.21
2018-06-14T19:59:20.059Z,48.19
2018-06-14T20:01:48.195Z,47.80
2018-06-14T20:04:17.539Z,48.35
2018-06-14T20:06:46.229Z,48.81
2018-06-14T20:09:15.226Z,49.34
2018-06-14T20:11:43.702Z,47.87
2018-06-14T20:14:11.911Z,49.67
2018-06-14T20:16:40.202Z,49.53
2018-06-14T20:19:09.238Z,48.59
2018-06-14T20:21:37.520Z,49.70
2018-06-14T20:24:06.975Z,49.53
2018-06-14T20:26:37.740Z,49.92
2018-06-14T20:29:06.552Z,49.72
2018-06-14T20:31:35.357Z,50.09
2018-06-14T20:34:03.600Z,50.29
2018-06-14T20:36:31.745Z,51.02
2018-06-14T20:39:00.159Z,51.38
2018-06-14T20:41:28.492Z,51.21
2018-06-14T20:43:56.875Z,51.50
2018-06-14T20:46:25.078Z,50.78
2018-06-14T20:48:53.528Z,51.53
2018-06-14T20:51:22.215Z,51.76
2018-06-14T20:53:51.849Z,52.33
2018-06-14T20:56:20.627Z,51.83
2018-06-14T20:58:49.416Z,52.67
2018-06-14T21:01:19.847Z,52.51
2018-06-14T21:03:48.147Z,53.40
2018-06-14T21:06:16.370Z,53.91
2018-06-14T21:08:44.471Z,54.30
2018-06-14T21:11:12.555Z,54.23
2018-06-14T21:13:40.686Z,55.16
2018-06-14T21:16:08.943Z,54.22
2018-06-14T21:18:37.056Z,54.21
2018-06-14T21:21:05.131Z,55.43
2018-06-14T21:23:33.282Z,55.39
2018-06-14T21:26:01.419Z,55.34
2018-06-14T21:28:29.793Z,55.01
2018-06-14T21:30:57.883Z,54.12
2018-06-14T21:33:25.975Z,54.49
2018-06-14T21:35:54.079Z,54.69
2018-06-14T21:38:22.295Z,54.85
2018-06-14T21:40:50.570Z,54.82
2018-06-14T21:43:18.988Z,54.61
2018-06-14T21:45:47.165Z,55.32
2018-06-14T21:48:15.359Z,54.49
2018-06-14T21:50:43.718Z,56.86
2018-06-14T21:53:11.871Z,56.59
2018-06-14T21:55:40.141Z,57.13
2018-06-14T21:58:08.320Z,56.40
2018-06-14T22:00:36.449Z,57.77
2018-06-14T22:04:12.178Z,57.33
2018-06-14T22:06:40.278Z,60.61
2018-06-14T22:09:08.727Z,59.54
2018-06-14T22:11:36.861Z,60.96
2018-06-14T22:14:05.540Z,59.59
2018-06-14T22:16:33.855Z,59.85
2018-06-14T22:19:02.126Z,61.72
2018-06-14T22:21:31.421Z,62.49
2018-06-14T22:23:59.609Z,62.02
2018-06-14T22:26:28.059Z,62.31
2018-06-14T22:28:56.263Z,62.62
2018-06-14T22:31:24.343Z,62.92
2018-06-14T22:34:04.056Z,64.35
2018-06-14T22:36:32.251Z,62.74
2018-06-14T22:39:00.392Z,62.36
2018-06-14T22:41:28.684Z,65.04
2018-06-14T22:43:57.835Z,64.00
2018-06-14T22:46:25.973Z,63.45
2018-06-14T22:48:54.225Z,63.29
2018-06-14T22:51:22.739Z,63.66
2018-06-14T22:53:50.891Z,62.96
2018-06-14T22:56:18.974Z,61.48
2018-06-14T22:58:47.140Z,64.00
2018-06-14T23:01:35.813Z,63.73
2018-06-14T23:04:04.705Z,64.60
2018-06-14T23:06:33.052Z,63.37
2018-06-14T23:09:05.449Z,65.13
2018-06-14T23:11:33.687Z,63.92
2018-06-14T23:14:01.893Z,64.17
2018-06-14T23:16:29.985Z,63.06
2018-06-14T23:18:58.416Z,63.56
2018-06-14T23:21:26.531Z,63.74
2018-06-14T23:23:54.641Z,66.37
2018-06-14T23:26:23.147Z,64.40
2018-06-14T23:28:51.305Z,64.34
2018-06-14T23:31:19.451Z,63.09
2018-06-14T23:33:47.639Z,63.20
2018-06-14T23:36:15.776Z,64.62
2018-06-14T23:38:44.026Z,64.27
2018-06-14T23:41:12.811Z,64.50
2018-06-14T23:43:42.179Z,63.91
2018-06-14T23:46:10.417Z,65.19
2018-06-14T23:48:38.490Z,65.32
2018-06-14T23:51:06.559Z,65.77
2018-06-14T23:53:34.725Z,66.25
2018-06-14T23:56:03.161Z,65.22
2018-06-14T23:58:31.343Z,64.60
